createdAt,value
2019-03-18T00:01:50.789Z,29.33
2019-03-18T00:04:20.383Z,27.77
2019-03-18T00:06:48.634Z,26.43
2019-03-18T00:09:16.923Z,26.97
2019-03-18T00:11:46.254Z,28.17
2019-03-18T00:14:14.603Z,26.80
2019-03-18T00:16:42.942Z,28.27
2019-03-18T00:19:11.260Z,29.67
2019-03-18T00:21:39.655Z,31.33
2019-03-18T00:24:08.059Z,33.20
2019-03-18T00:26:36.508Z,34.67
2019-03-18T00:29:04.815Z,33.93
2019-03-18T00:31:33.296Z,34.50
2019-03-18T00:34:01.747Z,35.10
2019-03-18T00:36:30.252Z,34.73
2019-03-18T00:38:58.860Z,33.00
2019-03-18T00:41:27.339Z,36.37
2019-03-18T00:43:55.561Z,39.27
2019-03-18T00:46:23.895Z,41.30
2019-03-18T00:48:52.311Z,43.03
2019-03-18T00:51:20.831Z,42.87
2019-03-18T00:53:49.235Z,42.43
2019-03-18T00:56:17.857Z,42.17
2019-03-18T00:58:46.174Z,41.10
2019-03-18T01:01:14.604Z,38.33
2019-03-18T01:03:42.953Z,40.27
2019-03-18T01:06:11.320Z,38.70
2019-03-18T01:08:39.703Z,38.57
2019-03-18T01:11:08.233Z,36.67
2019-03-18T01:13:36.732Z,37.60
2019-03-18T01:16:05.414Z,36.43
2019-03-18T01:18:33.796Z,36.23
2019-03-18T01:21:02.088Z,37.47
2019-03-18T01:23:31.622Z,36.23
2019-03-18T01:26:00.005Z,37.17
2019-03-18T01:28:28.398Z,36.70
2019-03-18T01:30:57.041Z,37.67
2019-03-18T01:33:25.396Z,37.43
2019-03-18T01:35:53.608Z,38.27
2019-03-18T01:38:21.886Z,36.57
2019-03-18T01:40:51.512Z,37.03
2019-03-18T01:43:19.754Z,35.17
2019-03-18T01:45:47.936Z,37.63
2019-03-18T01:48:16.470Z,37.33
2019-03-18T01:50:44.766Z,37.13
2019-03-18T01:53:12.990Z,36.83
2019-03-18T01:55:41.418Z,37.87
2019-03-18T01:58:09.616Z,38.47
2019-03-18T02:00:38.353Z,38.83
2019-03-18T02:03:06.883Z,38.90
2019-03-18T02:05:35.188Z,40.20
2019-03-18T02:08:03.489Z,40.53
2019-03-18T02:10:31.830Z,40.87
2019-03-18T02:13:00.292Z,41.00
2019-03-18T02:15:28.720Z,40.13
2019-03-18T02:17:57.105Z,41.03
2019-03-18T02:20:25.567Z,39.70
2019-03-18T02:22:53.858Z,40.57
2019-03-18T02:25:22.280Z,40.37
2019-03-18T02:27:50.576Z,40.40
2019-03-18T02:30:19.111Z,41.30
2019-03-18T02:32:48.936Z,41.83
2019-03-18T02:35:17.180Z,43.23
2019-03-18T02:37:45.619Z,42.50
2019-03-18T02:40:14.073Z,42.37
2019-03-18T02:42:43.357Z,40.80
2019-03-18T02:45:11.939Z,42.87
2019-03-18T02:47:40.334Z,43.83
2019-03-18T02:50:08.784Z,44.07
2019-03-18T02:52:37.180Z,45.57
2019-03-18T02:55:06.507Z,44.53
2019-03-18T02:57:34.867Z,42.57
2019-03-18T03:00:05.154Z,42.30
2019-03-18T03:02:33.422Z,42.70
2019-03-18T03:05:01.993Z,42.77
2019-03-18T03:07:30.400Z,43.50
2019-03-18T03:09:59.864Z,41.93
2019-03-18T03:12:28.073Z,41.57
2019-03-18T03:14:56.408Z,42.83
2019-03-18T03:17:24.852Z,43.47
2019-03-18T03:19:53.049Z,46.20
2019-03-18T03:22:21.382Z,45.20
2019-03-18T03:24:49.707Z,44.73
2019-03-18T03:27:18.189Z,44.80
2019-03-18T03:29:46.542Z,43.47
2019-03-18T03:32:14.887Z,44.90
2019-03-18T03:34:43.220Z,43.77
2019-03-18T03:37:11.754Z,43.90
2019-03-18T03:39:40.083Z,41.93
2019-03-18T03:42:08.585Z,42.00
2019-03-18T03:44:37.071Z,42.20
2019-03-18T03:47:05.535Z,41.47
2019-03-18T03:49:33.879Z,42.10
2019-03-18T03:52:02.183Z,43.60
2019-03-18T03:54:30.712Z,45.17
2019-03-18T03:56:59.001Z,46.07
2019-03-18T03:59:27.365Z,48.80
2019-03-18T04:01:55.685Z,47.80
2019-03-18T04:04:24.150Z,48.27
2019-03-18T04:06:52.507Z,45.50
2019-03-18T04:09:20.960Z,52.27
2019-03-18T04:11:49.415Z,47.20
2019-03-18T04:14:18.010Z,46.03
2019-03-18T04:17:00.633Z,46.57
2019-03-18T04:19:16.654Z,45.60
2019-03-18T04:21:45.269Z,48.60
2019-03-18T04:24:15.525Z,49.73
2019-03-18T04:26:43.882Z,50.13
2019-03-18T04:29:12.297Z,50.63
2019-03-18T04:31:40.653Z,50.80
2019-03-18T04:34:09.125Z,48.33
2019-03-18T04:36:37.637Z,48.27
2019-03-18T04:39:06.713Z,49.60
2019-03-18T04:41:35.043Z,48.83
2019-03-18T04:44:03.601Z,49.70
2019-03-18T04:46:32.081Z,52.13
2019-03-18T04:49:00.455Z,52.43
2019-03-18T04:51:28.835Z,53.10
2019-03-18T04:53:58.452Z,54.63
2019-03-18T04:56:26.698Z,55.53
2019-03-18T04:58:55.034Z,54.60
2019-03-18T05:01:23.461Z,55.47
2019-03-18T05:03:52.735Z,54.80
2019-03-18T05:06:21.079Z,53.87
2019-03-18T05:08:49.524Z,58.67
2019-03-18T05:11:17.716Z,58.80
2019-03-18T05:13:46.194Z,56.40
2019-03-18T05:16:14.576Z,57.40
2019-03-18T05:18:42.956Z,60.43
2019-03-18T05:21:11.432Z,59.60
2019-03-18T05:23:39.838Z,57.97
2019-03-18T05:26:08.146Z,60.53
2019-03-18T05:28:36.455Z,60.23
2019-03-18T05:31:04.915Z,63.37
2019-03-18T05:33:33.158Z,63.50
2019-03-18T05:36:01.495Z,62.97
2019-03-18T05:38:29.798Z,62.77
2019-03-18T05:40:58.104Z,64.67
2019-03-18T05:43:26.375Z,65.23
2019-03-18T05:45:54.750Z,64.17
2019-03-18T05:48:23.103Z,61.80
2019-03-18T05:50:51.563Z,63.73
2019-03-18T05:53:20.005Z,62.40
2019-03-18T05:55:49.384Z,60.37
2019-03-18T05:58:17.837Z,58.13
2019-03-18T06:00:46.270Z,58.23
2019-03-18T06:03:14.831Z,55.63
2019-03-18T06:05:43.347Z,54.27
2019-03-18T06:08:11.887Z,52.97
2019-03-18T06:10:40.154Z,49.03
2019-03-18T06:13:08.607Z,50.47
2019-03-18T06:15:37.016Z,51.60
2019-03-18T06:18:05.415Z,48.83
2019-03-18T06:20:33.910Z,49.13
2019-03-18T06:23:02.385Z,48.60
2019-03-18T06:25:30.646Z,50.70
2019-03-18T06:27:59.076Z,20.90
2019-03-18T06:30:27.467Z,6.93
2019-03-18T06:32:55.786Z,2.90
2019-03-18T06:35:23.972Z,3.20
2019-03-18T06:37:52.416Z,1.83
2019-03-18T06:40:20.567Z,1.90
2019-03-18T06:42:48.835Z,1.80
2019-03-18T06:45:17.094Z,1.50
2019-03-18T06:47:45.450Z,1.37
2019-03-18T06:50:13.648Z,1.23
2019-03-18T06:52:42.162Z,1.60
2019-03-18T06:55:10.457Z,1.50
2019-03-18T06:57:38.876Z,1.30
2019-03-18T07:00:07.799Z,1.70
2019-03-18T07:02:36.050Z,1.40
2019-03-18T07:05:04.582Z,1.50
2019-03-18T07:07:33.057Z,1.60
2019-03-18T07:10:01.362Z,1.50
2019-03-18T07:12:29.852Z,1.90
2019-03-18T07:14:58.315Z,2.23
2019-03-18T07:17:26.824Z,2.20
2019-03-18T07:19:55.096Z,2.63
2019-03-18T07:22:23.608Z,2.90
2019-03-18T07:24:52.045Z,3.20
2019-03-18T07:27:20.531Z,2.10
2019-03-18T07:29:48.992Z,1.30
2019-03-18T07:32:17.491Z,2.20
2019-03-18T07:34:45.810Z,1.50
2019-03-18T07:37:14.214Z,1.20
2019-03-18T07:39:42.439Z,1.10
2019-03-18T07:42:10.886Z,1.50
2019-03-18T07:44:39.277Z,1.47
2019-03-18T07:47:07.675Z,1.57
2019-03-18T07:49:35.932Z,1.40
2019-03-18T07:52:04.284Z,1.80
2019-03-18T07:54:33.318Z,1.97
2019-03-18T07:57:01.871Z,1.43
2019-03-18T07:59:31.267Z,1.10
2019-03-18T08:01:59.646Z,1.50
2019-03-18T08:04:36.815Z,1.67
2019-03-18T08:06:58.410Z,1.50
2019-03-18T08:09:26.918Z,2.70
2019-03-18T08:11:55.303Z,2.13
2019-03-18T08:14:23.789Z,1.73
2019-03-18T08:16:52.071Z,1.20
2019-03-18T08:19:20.529Z,1.40
2019-03-18T08:21:48.882Z,1.50
2019-03-18T08:24:17.408Z,1.47
2019-03-18T08:26:45.897Z,1.27
2019-03-18T08:29:14.403Z,1.60
2019-03-18T08:31:42.732Z,2.60
2019-03-18T08:34:11.981Z,1.60
2019-03-18T08:36:41.141Z,1.20
2019-03-18T08:39:10.303Z,1.40
2019-03-18T08:41:39.704Z,1.10
2019-03-18T08:44:08.763Z,1.20
2019-03-18T08:46:38.267Z,1.20
2019-03-18T08:49:08.629Z,1.20
2019-03-18T08:51:37.662Z,1.20
2019-03-18T08:54:07.148Z,1.30
2019-03-18T08:56:36.204Z,1.10
2019-03-18T08:59:05.025Z,1.20
2019-03-18T09:02:00.411Z,1.50
2019-03-18T09:04:29.214Z,1.40
2019-03-18T09:06:57.846Z,1.50
2019-03-18T09:09:27.260Z,1.82
2019-03-18T09:11:55.903Z,1.70
2019-03-18T09:14:25.120Z,1.30
2019-03-18T09:16:54.631Z,2.00
2019-03-18T09:19:23.565Z,1.30
2019-03-18T09:21:53.418Z,1.20
2019-03-18T09:24:22.407Z,1.40
2019-03-18T09:27:01.988Z,1.27
2019-03-18T09:29:22.261Z,1.20
2019-03-18T09:31:51.872Z,1.20
2019-03-18T09:34:20.016Z,1.10
2019-03-18T09:36:48.442Z,1.20
2019-03-18T09:39:16.740Z,1.20
2019-03-18T09:41:45.220Z,1.23
2019-03-18T09:44:14.071Z,1.70
2019-03-18T09:46:42.583Z,1.40
2019-03-18T09:49:20.947Z,1.83
2019-03-18T09:51:41.155Z,1.60
2019-03-18T09:54:09.616Z,1.83
2019-03-18T09:56:38.092Z,2.00
2019-03-18T09:59:06.518Z,1.50
2019-03-18T10:01:34.953Z,1.60
2019-03-18T10:04:03.265Z,2.07
2019-03-18T10:06:31.700Z,2.17
2019-03-18T10:09:00.183Z,2.43
2019-03-18T10:11:28.513Z,2.40
2019-03-18T10:13:56.968Z,3.00
2019-03-18T10:16:25.401Z,4.77
2019-03-18T10:18:53.742Z,5.27
2019-03-18T10:21:21.988Z,3.90
2019-03-18T10:23:50.409Z,3.60
2019-03-18T10:26:18.958Z,4.97
2019-03-18T10:28:47.598Z,4.33
2019-03-18T10:31:16.219Z,2.70
2019-03-18T10:33:45.650Z,2.57
2019-03-18T10:36:13.907Z,1.70
2019-03-18T10:38:42.263Z,1.90
2019-03-18T10:41:10.558Z,3.83
2019-03-18T10:43:38.891Z,3.47
2019-03-18T10:46:08.285Z,2.97
2019-03-18T10:48:36.472Z,2.47
2019-03-18T10:51:04.662Z,2.00
2019-03-18T10:53:33.102Z,1.90
2019-03-18T10:56:07.835Z,1.97
2019-03-18T10:58:32.450Z,2.20
2019-03-18T11:01:00.881Z,1.80
2019-03-18T11:03:29.251Z,1.60
2019-03-18T11:05:57.632Z,1.97
2019-03-18T11:08:26.055Z,2.80
2019-03-18T11:10:54.372Z,3.25
2019-03-18T11:13:22.866Z,3.15
2019-03-18T11:15:51.231Z,2.17
2019-03-18T11:18:19.579Z,2.05
2019-03-18T11:20:47.869Z,2.00
2019-03-18T11:23:16.339Z,1.80
2019-03-18T11:25:45.855Z,1.73
2019-03-18T11:28:14.189Z,1.70
2019-03-18T11:30:42.579Z,1.90
2019-03-18T11:33:10.789Z,1.70
2019-03-18T11:35:39.398Z,1.97
2019-03-18T11:38:07.908Z,3.33
2019-03-18T11:40:36.330Z,3.27
2019-03-18T11:43:04.765Z,2.10
2019-03-18T11:45:33.380Z,2.30
2019-03-18T11:48:01.694Z,2.00
2019-03-18T11:50:30.202Z,3.57
2019-03-18T11:52:59.142Z,2.40
2019-03-18T11:55:27.517Z,1.80
2019-03-18T11:57:55.908Z,1.40
2019-03-18T12:00:24.398Z,1.33
2019-03-18T12:02:52.853Z,1.50
2019-03-18T12:05:21.316Z,1.53
2019-03-18T12:07:49.896Z,1.50
2019-03-18T12:10:18.172Z,1.60
2019-03-18T12:12:46.651Z,1.83
2019-03-18T12:15:15.153Z,1.80
2019-03-18T12:17:43.675Z,2.00
2019-03-18T12:20:23.586Z,1.53
2019-03-18T12:22:42.425Z,1.80
2019-03-18T12:25:11.914Z,2.10
2019-03-18T12:27:40.371Z,2.03
2019-03-18T12:30:10.470Z,1.90
2019-03-18T12:32:38.719Z,1.60
2019-03-18T12:35:07.154Z,1.63
2019-03-18T12:37:35.653Z,1.80
2019-03-18T12:40:05.736Z,1.60
2019-03-18T12:42:34.310Z,1.60
2019-03-18T12:45:02.702Z,1.50
2019-03-18T12:47:30.976Z,1.30
2019-03-18T12:50:00.209Z,1.43
2019-03-18T12:52:28.527Z,1.57
2019-03-18T12:54:56.843Z,1.40
2019-03-18T12:57:25.264Z,1.30
2019-03-18T12:59:53.570Z,1.40
2019-03-18T13:02:21.965Z,1.30
2019-03-18T13:04:50.302Z,1.40
2019-03-18T13:07:18.807Z,1.40
2019-03-18T13:09:47.060Z,1.60
2019-03-18T13:12:15.308Z,1.50
2019-03-18T13:14:43.672Z,1.30
2019-03-18T13:17:12.056Z,2.50
2019-03-18T13:19:40.323Z,1.70
2019-03-18T13:22:08.856Z,1.50
2019-03-18T13:24:37.074Z,1.70
2019-03-18T13:27:06.454Z,1.80
2019-03-18T13:29:34.775Z,1.50
2019-03-18T13:32:03.258Z,1.20
2019-03-18T13:34:31.729Z,1.50
2019-03-18T13:37:00.138Z,1.90
2019-03-18T13:39:28.449Z,2.73
2019-03-18T13:41:56.986Z,3.27
2019-03-18T13:44:25.366Z,1.90
2019-03-18T13:46:53.774Z,1.30
2019-03-18T13:49:22.241Z,1.30
2019-03-18T13:51:50.709Z,2.20
2019-03-18T13:54:18.896Z,3.00
2019-03-18T13:56:47.193Z,4.33
2019-03-18T13:59:16.510Z,3.40
2019-03-18T14:01:44.872Z,2.27
2019-03-18T14:04:13.440Z,6.17
2019-03-18T14:06:41.805Z,3.57
2019-03-18T14:09:10.205Z,4.55
2019-03-18T14:11:38.527Z,5.90
2019-03-18T14:14:06.952Z,4.50
2019-03-18T14:16:35.210Z,5.30
2019-03-18T14:19:04.728Z,3.50
2019-03-18T14:21:33.742Z,2.93
2019-03-18T14:24:02.202Z,3.30
2019-03-18T14:26:30.611Z,3.47
2019-03-18T14:29:00.239Z,3.43
2019-03-18T14:31:28.754Z,4.40
2019-03-18T14:33:57.170Z,3.40
2019-03-18T14:36:25.648Z,1.27
2019-03-18T14:38:53.954Z,1.40
2019-03-18T14:41:22.432Z,1.40
2019-03-18T14:43:50.762Z,1.40
2019-03-18T14:46:19.153Z,3.97
2019-03-18T14:48:47.608Z,2.23
2019-03-18T14:51:16.062Z,5.37
2019-03-18T14:53:44.383Z,3.20
2019-03-18T14:56:12.761Z,2.10
2019-03-18T14:58:41.211Z,1.90
2019-03-18T15:01:09.674Z,2.07
2019-03-18T15:03:38.043Z,1.60
2019-03-18T15:06:06.601Z,1.43
2019-03-18T15:08:35.104Z,1.80
2019-03-18T15:11:03.646Z,1.40
2019-03-18T15:13:31.988Z,6.23
2019-03-18T15:16:00.251Z,1.20
2019-03-18T15:18:28.683Z,1.33
2019-03-18T15:20:57.206Z,1.30
2019-03-18T15:23:25.544Z,1.87
2019-03-18T15:25:53.899Z,1.20
2019-03-18T15:28:23.371Z,1.30
2019-03-18T15:30:51.762Z,1.90
2019-03-18T15:33:21.063Z,1.60
2019-03-18T15:35:50.513Z,1.70
2019-03-18T15:38:18.844Z,1.50
2019-03-18T15:40:47.199Z,1.50
2019-03-18T15:43:15.546Z,2.00
2019-03-18T15:45:44.073Z,2.40
2019-03-18T15:48:12.401Z,1.52
2019-03-18T15:50:40.838Z,1.57
2019-03-18T15:53:09.192Z,1.40
2019-03-18T15:55:37.744Z,1.60
2019-03-18T15:58:06.168Z,1.63
2019-03-18T16:00:34.477Z,1.40
2019-03-18T16:03:02.913Z,1.50
2019-03-18T16:05:31.357Z,1.70
2019-03-18T16:07:59.591Z,1.40
2019-03-18T16:10:28.063Z,1.40
2019-03-18T16:12:56.503Z,1.50
2019-03-18T16:15:24.894Z,1.50
2019-03-18T16:17:53.202Z,1.20
2019-03-18T16:20:22.792Z,1.50
2019-03-18T16:22:51.428Z,1.63
2019-03-18T16:25:20.108Z,1.53
2019-03-18T16:27:48.596Z,1.80
2019-03-18T16:30:17.029Z,1.90
2019-03-18T16:32:45.456Z,1.83
2019-03-18T16:35:16.018Z,1.57
2019-03-18T16:37:43.934Z,42.30
2019-03-18T16:40:12.385Z,3.07
2019-03-18T16:42:40.812Z,2.43
2019-03-18T16:45:10.114Z,2.40
2019-03-18T16:47:38.537Z,2.77
2019-03-18T16:50:08.196Z,8.40
2019-03-18T16:52:37.589Z,4.33
2019-03-18T16:55:06.167Z,2.90
2019-03-18T16:57:34.516Z,2.67
2019-03-18T17:00:02.884Z,2.27
2019-03-18T17:02:32.718Z,2.20
2019-03-18T17:05:01.094Z,2.53
2019-03-18T17:07:29.538Z,2.33
2019-03-18T17:09:57.848Z,2.40
2019-03-18T17:12:27.238Z,2.50
2019-03-18T17:14:55.564Z,3.10
2019-03-18T17:17:23.875Z,3.27
2019-03-18T17:19:52.319Z,3.20
2019-03-18T17:22:20.670Z,3.23
2019-03-18T17:24:49.326Z,3.07
2019-03-18T17:27:17.713Z,4.50
2019-03-18T17:29:47.062Z,6.50
2019-03-18T17:32:15.573Z,6.00
2019-03-18T17:34:44.371Z,6.30
2019-03-18T17:37:12.761Z,5.83
2019-03-18T17:39:41.135Z,5.60
2019-03-18T17:42:09.478Z,5.07
2019-03-18T17:44:37.894Z,5.83
2019-03-18T17:47:07.606Z,5.67
2019-03-18T17:49:36.292Z,5.67
2019-03-18T17:52:04.618Z,6.17
2019-03-18T17:54:33.011Z,5.20
2019-03-18T17:57:07.089Z,5.50
2019-03-18T17:59:31.855Z,6.10
2019-03-18T18:02:00.465Z,6.30
2019-03-18T18:04:28.955Z,6.00
2019-03-18T18:06:57.286Z,6.23
2019-03-18T18:09:25.699Z,6.75
2019-03-18T18:11:54.089Z,7.00
2019-03-18T18:14:22.610Z,7.33
2019-03-18T18:16:51.121Z,7.27
2019-03-18T18:19:19.461Z,6.80
2019-03-18T18:21:47.640Z,6.70
2019-03-18T18:24:16.078Z,6.83
2019-03-18T18:26:44.423Z,7.40
2019-03-18T18:29:12.633Z,7.87
2019-03-18T18:31:41.701Z,7.73
2019-03-18T18:34:10.101Z,7.37
2019-03-18T18:36:38.346Z,8.43
2019-03-18T18:39:07.199Z,7.87
2019-03-18T18:41:35.504Z,7.83
2019-03-18T18:44:03.850Z,8.17
2019-03-18T18:46:32.131Z,8.33
2019-03-18T18:49:00.552Z,7.17
2019-03-18T18:51:28.801Z,7.50
2019-03-18T18:53:57.127Z,8.50
2019-03-18T18:56:25.547Z,20.83
2019-03-18T18:58:53.939Z,23.73
2019-03-18T19:01:22.357Z,17.27
2019-03-18T19:03:50.863Z,13.20
2019-03-18T19:06:19.319Z,11.30
2019-03-18T19:08:48.847Z,9.60
2019-03-18T19:11:17.405Z,10.67
2019-03-18T19:13:45.790Z,13.10
2019-03-18T19:16:14.196Z,11.03
2019-03-18T19:18:42.612Z,10.17
2019-03-18T19:21:11.052Z,12.17
2019-03-18T19:23:39.552Z,12.37
2019-03-18T19:26:07.893Z,14.13
2019-03-18T19:28:36.209Z,12.93
2019-03-18T19:31:04.829Z,15.87
2019-03-18T19:33:33.336Z,14.90
2019-03-18T19:36:01.735Z,17.23
2019-03-18T19:38:30.260Z,18.10
2019-03-18T19:40:58.807Z,21.67
2019-03-18T19:43:27.067Z,25.10
2019-03-18T19:45:55.614Z,21.53
2019-03-18T19:48:23.916Z,21.20
2019-03-18T19:50:52.386Z,20.07
2019-03-18T19:53:20.983Z,16.60
2019-03-18T19:55:49.383Z,13.83
2019-03-18T19:58:17.578Z,12.30
2019-03-18T20:00:46.059Z,9.93
2019-03-18T20:03:14.470Z,9.13
2019-03-18T20:05:42.927Z,8.43
2019-03-18T20:08:11.357Z,7.50
2019-03-18T20:10:39.820Z,7.87
2019-03-18T20:13:08.160Z,7.90
2019-03-18T20:15:36.582Z,9.57
2019-03-18T20:18:05.023Z,12.17
2019-03-18T20:20:33.405Z,10.30
2019-03-18T20:23:02.041Z,9.87
2019-03-18T20:25:30.406Z,8.60
2019-03-18T20:27:58.705Z,7.90
2019-03-18T20:30:27.087Z,6.80
2019-03-18T20:32:56.863Z,6.80
2019-03-18T20:35:25.264Z,10.53
2019-03-18T20:37:53.655Z,30.00
2019-03-18T20:40:22.080Z,21.93
2019-03-18T20:42:50.363Z,18.40
2019-03-18T20:45:18.723Z,10.07
2019-03-18T20:47:47.025Z,7.33
2019-03-18T20:50:15.624Z,6.03
2019-03-18T20:52:44.228Z,6.70
2019-03-18T20:55:13.151Z,6.70
2019-03-18T20:57:41.535Z,7.40
2019-03-18T21:00:10.813Z,8.10
2019-03-18T21:02:39.322Z,9.93
2019-03-18T21:05:10.549Z,10.53
2019-03-18T21:07:38.747Z,9.95
2019-03-18T21:10:07.511Z,8.97
2019-03-18T21:12:35.870Z,10.00
2019-03-18T21:15:04.540Z,9.47
2019-03-18T21:17:32.990Z,8.93
2019-03-18T21:20:01.192Z,9.50
2019-03-18T21:22:29.589Z,10.83
2019-03-18T21:24:57.979Z,13.33
2019-03-18T21:27:26.202Z,14.57
2019-03-18T21:29:54.520Z,16.90
2019-03-18T21:32:22.935Z,15.13
2019-03-18T21:34:52.249Z,13.43
2019-03-18T21:37:20.683Z,11.47
2019-03-18T21:39:49.078Z,10.63
2019-03-18T21:42:17.435Z,12.87
2019-03-18T21:44:45.894Z,14.03
2019-03-18T21:47:14.327Z,13.70
2019-03-18T21:49:42.804Z,13.80
2019-03-18T21:52:12.258Z,12.33
2019-03-18T21:54:40.737Z,12.13
2019-03-18T21:57:09.085Z,11.10
2019-03-18T21:59:37.491Z,10.77
2019-03-18T22:02:05.894Z,11.30
2019-03-18T22:04:34.357Z,13.87
2019-03-18T22:07:02.737Z,11.90
2019-03-18T22:09:31.219Z,11.63
2019-03-18T22:11:59.468Z,14.03
2019-03-18T22:14:27.773Z,12.03
2019-03-18T22:16:56.183Z,12.57
2019-03-18T22:19:24.580Z,12.67
2019-03-18T22:21:53.105Z,13.00
2019-03-18T22:24:21.432Z,16.23
2019-03-18T22:26:49.829Z,14.80
2019-03-18T22:29:18.249Z,14.60
2019-03-18T22:31:46.532Z,13.97
2019-03-18T22:34:14.827Z,16.43
2019-03-18T22:36:44.234Z,17.63
2019-03-18T22:39:12.621Z,16.83
2019-03-18T22:41:40.946Z,16.30
2019-03-18T22:44:09.360Z,16.50
2019-03-18T22:46:37.662Z,15.63
2019-03-18T22:49:06.021Z,16.67
2019-03-18T22:51:34.537Z,17.63
2019-03-18T22:54:03.048Z,17.00
2019-03-18T22:56:31.459Z,17.77
2019-03-18T22:58:59.792Z,15.83
2019-03-18T23:01:28.811Z,14.60
2019-03-18T23:03:57.262Z,14.53
2019-03-18T23:06:26.315Z,14.83
2019-03-18T23:08:55.036Z,15.07
2019-03-18T23:11:23.720Z,14.43
2019-03-18T23:13:52.424Z,13.87
2019-03-18T23:16:21.296Z,12.93
2019-03-18T23:18:50.014Z,12.67
2019-03-18T23:21:18.737Z,11.53
2019-03-18T23:23:47.691Z,11.57
2019-03-18T23:26:16.101Z,10.43
2019-03-18T23:28:44.747Z,10.73
2019-03-18T23:31:14.509Z,10.03
2019-03-18T23:33:43.120Z,9.33
2019-03-18T23:36:11.912Z,9.50
2019-03-18T23:38:41.499Z,9.60
2019-03-18T23:41:10.185Z,9.63
2019-03-18T23:43:38.753Z,9.00
2019-03-18T23:46:08.538Z,8.40
2019-03-18T23:48:37.224Z,7.83
2019-03-18T23:51:05.781Z,7.37
2019-03-18T23:53:34.467Z,7.23
2019-03-18T23:56:03.182Z,7.40
2019-03-18T23:58:31.752Z,7.33
